sensor_id;sensor_type;location;lat;lon;timestamp;P1;durP1;ratioP1;P2;durP2;ratioP2
70929;SDS011;58588;48.102;19.682;2023-03-12T00:00:56;11.63;;;3.80;;
70929;SDS011;58588;48.102;19.682;2023-03-12T00:03:59;11.95;;;3.55;;
70929;SDS011;58588;48.102;19.682;2023-03-12T00:07:02;9.15;;;3.15;;
70929;SDS011;58588;48.102;19.682;2023-03-12T00:10:06;11.50;;;3.63;;
70929;SDS011;58588;48.102;19.682;2023-03-12T00:13:08;10.70;;;3.45;;
70929;SDS011;58588;48.102;19.682;2023-03-12T00:16:13;7.73;;;2.30;;
70929;SDS011;58588;48.102;19.682;2023-03-12T00:19:15;9.75;;;2.78;;
70929;SDS011;58588;48.102;19.682;2023-03-12T00:22:18;8.77;;;2.80;;
70929;SDS011;58588;48.102;19.682;2023-03-12T00:25:22;14.88;;;4.55;;
70929;SDS011;58588;48.102;19.682;2023-03-12T00:28:24;13.52;;;4.95;;
70929;SDS011;58588;48.102;19.682;2023-03-12T00:31:28;9.40;;;3.30;;
70929;SDS011;58588;48.102;19.682;2023-03-12T00:34:32;10.57;;;2.60;;
70929;SDS011;58588;48.102;19.682;2023-03-12T00:37:35;9.23;;;2.78;;
70929;SDS011;58588;48.102;19.682;2023-03-12T00:40:37;10.02;;;3.17;;
70929;SDS011;58588;48.102;19.682;2023-03-12T00:43:39;21.67;;;6.07;;
70929;SDS011;58588;48.102;19.682;2023-03-12T00:46:43;8.85;;;2.72;;
70929;SDS011;58588;48.102;19.682;2023-03-12T00:49:45;8.35;;;2.08;;
70929;SDS011;58588;48.102;19.682;2023-03-12T00:52:47;6.75;;;1.95;;
70929;SDS011;58588;48.102;19.682;2023-03-12T00:55:49;7.37;;;1.70;;
70929;SDS011;58588;48.102;19.682;2023-03-12T00:58:51;7.97;;;2.20;;
70929;SDS011;58588;48.102;19.682;2023-03-12T01:01:54;5.70;;;1.50;;
70929;SDS011;58588;48.102;19.682;2023-03-12T01:04:57;8.27;;;2.10;;
70929;SDS011;58588;48.102;19.682;2023-03-12T01:07:59;10.25;;;3.15;;
70929;SDS011;58588;48.102;19.682;2023-03-12T01:11:01;9.30;;;2.58;;
70929;SDS011;58588;48.102;19.682;2023-03-12T01:14:04;8.10;;;1.83;;
70929;SDS011;58588;48.102;19.682;2023-03-12T01:17:09;6.10;;;1.55;;
70929;SDS011;58588;48.102;19.682;2023-03-12T01:20:11;6.10;;;1.48;;
70929;SDS011;58588;48.102;19.682;2023-03-12T01:23:14;9.20;;;2.17;;
70929;SDS011;58588;48.102;19.682;2023-03-12T01:26:16;9.32;;;2.50;;
70929;SDS011;58588;48.102;19.682;2023-03-12T01:29:19;14.43;;;3.13;;
70929;SDS011;58588;48.102;19.682;2023-03-12T01:32:22;14.88;;;4.03;;
70929;SDS011;58588;48.102;19.682;2023-03-12T01:35:24;45.35;;;12.18;;
70929;SDS011;58588;48.102;19.682;2023-03-12T01:38:27;26.40;;;6.70;;
70929;SDS011;58588;48.102;19.682;2023-03-12T01:41:30;12.85;;;4.60;;
70929;SDS011;58588;48.102;19.682;2023-03-12T01:44:47;7.38;;;2.25;;
70929;SDS011;58588;48.102;19.682;2023-03-12T01:47:51;7.93;;;2.30;;
70929;SDS011;58588;48.102;19.682;2023-03-12T01:50:54;6.20;;;1.80;;
70929;SDS011;58588;48.102;19.682;2023-03-12T01:53:56;7.50;;;1.70;;
70929;SDS011;58588;48.102;19.682;2023-03-12T01:57:01;8.85;;;2.28;;
70929;SDS011;58588;48.102;19.682;2023-03-12T02:00:06;7.10;;;2.25;;
70929;SDS011;58588;48.102;19.682;2023-03-12T02:03:12;6.13;;;1.80;;
70929;SDS011;58588;48.102;19.682;2023-03-12T02:06:15;9.32;;;2.38;;
70929;SDS011;58588;48.102;19.682;2023-03-12T02:09:21;10.23;;;2.38;;
70929;SDS011;58588;48.102;19.682;2023-03-12T02:12:23;9.85;;;2.53;;
70929;SDS011;58588;48.102;19.682;2023-03-12T02:15:25;11.63;;;3.23;;
70929;SDS011;58588;48.102;19.682;2023-03-12T02:18:29;9.45;;;2.53;;
70929;SDS011;58588;48.102;19.682;2023-03-12T02:21:31;8.10;;;2.38;;
70929;SDS011;58588;48.102;19.682;2023-03-12T02:24:37;8.73;;;3.00;;
70929;SDS011;58588;48.102;19.682;2023-03-12T02:27:46;9.80;;;3.00;;
70929;SDS011;58588;48.102;19.682;2023-03-12T02:30:50;9.57;;;2.22;;
70929;SDS011;58588;48.102;19.682;2023-03-12T02:33:56;7.90;;;2.10;;
70929;SDS011;58588;48.102;19.682;2023-03-12T02:36:59;7.53;;;2.47;;
70929;SDS011;58588;48.102;19.682;2023-03-12T02:40:03;8.27;;;2.47;;
70929;SDS011;58588;48.102;19.682;2023-03-12T02:43:12;8.88;;;2.50;;
70929;SDS011;58588;48.102;19.682;2023-03-12T02:46:15;10.60;;;2.72;;
70929;SDS011;58588;48.102;19.682;2023-03-12T02:49:18;8.63;;;2.60;;
70929;SDS011;58588;48.102;19.682;2023-03-12T02:52:21;9.83;;;3.10;;
70929;SDS011;58588;48.102;19.682;2023-03-12T02:55:23;8.13;;;2.67;;
70929;SDS011;58588;48.102;19.682;2023-03-12T02:58:26;8.98;;;2.08;;
70929;SDS011;58588;48.102;19.682;2023-03-12T03:01:28;10.32;;;3.15;;
70929;SDS011;58588;48.102;19.682;2023-03-12T03:04:33;8.20;;;2.33;;
70929;SDS011;58588;48.102;19.682;2023-03-12T03:07:35;7.80;;;2.00;;
70929;SDS011;58588;48.102;19.682;2023-03-12T03:10:37;6.78;;;2.10;;
70929;SDS011;58588;48.102;19.682;2023-03-12T03:13:41;10.75;;;3.00;;
70929;SDS011;58588;48.102;19.682;2023-03-12T03:16:43;13.00;;;3.30;;
70929;SDS011;58588;48.102;19.682;2023-03-12T03:19:45;10.40;;;3.42;;
70929;SDS011;58588;48.102;19.682;2023-03-12T03:22:47;11.20;;;3.58;;
70929;SDS011;58588;48.102;19.682;2023-03-12T03:25:49;9.50;;;3.25;;
70929;SDS011;58588;48.102;19.682;2023-03-12T03:28:54;12.33;;;4.60;;
70929;SDS011;58588;48.102;19.682;2023-03-12T03:31:58;17.67;;;4.22;;
70929;SDS011;58588;48.102;19.682;2023-03-12T03:35:00;11.15;;;3.63;;
70929;SDS011;58588;48.102;19.682;2023-03-12T03:38:02;11.43;;;2.75;;
70929;SDS011;58588;48.102;19.682;2023-03-12T03:41:04;13.00;;;2.75;;
70929;SDS011;58588;48.102;19.682;2023-03-12T03:44:08;10.30;;;2.97;;
70929;SDS011;58588;48.102;19.682;2023-03-12T03:47:10;17.27;;;5.28;;
70929;SDS011;58588;48.102;19.682;2023-03-12T03:50:13;19.27;;;6.33;;
70929;SDS011;58588;48.102;19.682;2023-03-12T03:53:15;15.93;;;4.93;;
70929;SDS011;58588;48.102;19.682;2023-03-12T03:56:18;16.90;;;4.55;;
70929;SDS011;58588;48.102;19.682;2023-03-12T03:59:23;17.90;;;4.30;;
70929;SDS011;58588;48.102;19.682;2023-03-12T04:02:25;13.55;;;4.20;;
70929;SDS011;58588;48.102;19.682;2023-03-12T04:05:28;13.32;;;3.83;;
70929;SDS011;58588;48.102;19.682;2023-03-12T04:08:30;13.65;;;3.80;;
70929;SDS011;58588;48.102;19.682;2023-03-12T04:11:36;13.35;;;4.18;;
70929;SDS011;58588;48.102;19.682;2023-03-12T04:14:40;15.70;;;4.68;;
70929;SDS011;58588;48.102;19.682;2023-03-12T04:17:42;13.43;;;3.85;;
70929;SDS011;58588;48.102;19.682;2023-03-12T04:20:44;12.30;;;3.70;;
70929;SDS011;58588;48.102;19.682;2023-03-12T04:23:46;15.15;;;4.35;;
70929;SDS011;58588;48.102;19.682;2023-03-12T04:26:48;10.23;;;3.38;;
70929;SDS011;58588;48.102;19.682;2023-03-12T04:29:54;15.18;;;4.05;;
70929;SDS011;58588;48.102;19.682;2023-03-12T04:32:56;22.50;;;6.45;;
70929;SDS011;58588;48.102;19.682;2023-03-12T04:35:58;18.50;;;5.38;;
70929;SDS011;58588;48.102;19.682;2023-03-12T04:39:00;9.93;;;3.33;;
70929;SDS011;58588;48.102;19.682;2023-03-12T04:42:06;8.27;;;3.10;;
70929;SDS011;58588;48.102;19.682;2023-03-12T04:45:10;9.68;;;2.60;;
70929;SDS011;58588;48.102;19.682;2023-03-12T04:48:13;9.00;;;2.63;;
70929;SDS011;58588;48.102;19.682;2023-03-12T04:51:15;12.75;;;5.03;;
70929;SDS011;58588;48.102;19.682;2023-03-12T04:54:17;11.52;;;4.53;;
70929;SDS011;58588;48.102;19.682;2023-03-12T04:57:20;10.75;;;3.03;;
70929;SDS011;58588;48.102;19.682;2023-03-12T05:00:23;9.70;;;3.13;;
70929;SDS011;58588;48.102;19.682;2023-03-12T05:03:26;11.37;;;2.90;;
70929;SDS011;58588;48.102;19.682;2023-03-12T05:06:28;10.07;;;3.17;;
70929;SDS011;58588;48.102;19.682;2023-03-12T05:09:30;11.27;;;3.60;;
70929;SDS011;58588;48.102;19.682;2023-03-12T05:12:32;10.57;;;3.40;;
70929;SDS011;58588;48.102;19.682;2023-03-12T05:15:37;9.77;;;3.67;;
70929;SDS011;58588;48.102;19.682;2023-03-12T05:18:39;11.80;;;3.45;;
70929;SDS011;58588;48.102;19.682;2023-03-12T05:21:42;16.13;;;6.82;;
70929;SDS011;58588;48.102;19.682;2023-03-12T05:24:44;20.30;;;7.47;;
70929;SDS011;58588;48.102;19.682;2023-03-12T05:27:47;14.15;;;5.55;;
70929;SDS011;58588;48.102;19.682;2023-03-12T05:30:50;15.80;;;4.82;;
70929;SDS011;58588;48.102;19.682;2023-03-12T05:33:55;15.70;;;6.27;;
70929;SDS011;58588;48.102;19.682;2023-03-12T05:36:59;14.57;;;4.65;;
70929;SDS011;58588;48.102;19.682;2023-03-12T05:40:01;10.23;;;3.28;;
70929;SDS011;58588;48.102;19.682;2023-03-12T05:43:04;9.32;;;3.08;;
70929;SDS011;58588;48.102;19.682;2023-03-12T05:46:09;11.93;;;4.00;;
70929;SDS011;58588;48.102;19.682;2023-03-12T05:49:12;14.48;;;5.15;;
70929;SDS011;58588;48.102;19.682;2023-03-12T05:52:18;14.75;;;5.88;;
70929;SDS011;58588;48.102;19.682;2023-03-12T05:55:20;15.03;;;5.80;;
70929;SDS011;58588;48.102;19.682;2023-03-12T05:58:22;14.60;;;5.40;;
70929;SDS011;58588;48.102;19.682;2023-03-12T06:01:27;20.30;;;7.45;;
70929;SDS011;58588;48.102;19.682;2023-03-12T06:04:30;14.77;;;5.45;;
70929;SDS011;58588;48.102;19.682;2023-03-12T06:07:33;13.75;;;5.05;;
70929;SDS011;58588;48.102;19.682;2023-03-12T06:10:36;15.55;;;5.60;;
70929;SDS011;58588;48.102;19.682;2023-03-12T06:13:39;19.08;;;7.22;;
70929;SDS011;58588;48.102;19.682;2023-03-12T06:16:43;22.07;;;9.43;;
70929;SDS011;58588;48.102;19.682;2023-03-12T06:19:49;18.25;;;7.47;;
70929;SDS011;58588;48.102;19.682;2023-03-12T06:22:51;21.20;;;7.68;;
70929;SDS011;58588;48.102;19.682;2023-03-12T06:25:54;18.50;;;7.35;;
70929;SDS011;58588;48.102;19.682;2023-03-12T06:28:56;32.60;;;12.63;;
70929;SDS011;58588;48.102;19.682;2023-03-12T06:31:59;28.05;;;12.18;;
70929;SDS011;58588;48.102;19.682;2023-03-12T06:35:02;30.27;;;11.77;;
70929;SDS011;58588;48.102;19.682;2023-03-12T06:38:05;32.03;;;11.85;;
70929;SDS011;58588;48.102;19.682;2023-03-12T06:41:07;37.23;;;14.63;;
70929;SDS011;58588;48.102;19.682;2023-03-12T06:44:11;26.13;;;8.85;;
70929;SDS011;58588;48.102;19.682;2023-03-12T06:47:15;29.85;;;10.70;;
70929;SDS011;58588;48.102;19.682;2023-03-12T06:50:17;32.15;;;11.38;;
70929;SDS011;58588;48.102;19.682;2023-03-12T06:53:20;20.33;;;8.13;;
70929;SDS011;58588;48.102;19.682;2023-03-12T06:56:22;21.67;;;8.35;;
70929;SDS011;58588;48.102;19.682;2023-03-12T06:59:25;16.92;;;6.30;;
70929;SDS011;58588;48.102;19.682;2023-03-12T07:02:29;13.73;;;5.47;;
70929;SDS011;58588;48.102;19.682;2023-03-12T07:05:31;10.50;;;3.72;;
70929;SDS011;58588;48.102;19.682;2023-03-12T07:08:33;12.37;;;3.90;;
70929;SDS011;58588;48.102;19.682;2023-03-12T07:11:35;11.60;;;3.78;;
70929;SDS011;58588;48.102;19.682;2023-03-12T07:14:37;13.00;;;3.80;;
70929;SDS011;58588;48.102;19.682;2023-03-12T07:17:41;10.95;;;3.65;;
70929;SDS011;58588;48.102;19.682;2023-03-12T07:20:43;10.83;;;3.53;;
70929;SDS011;58588;48.102;19.682;2023-03-12T07:23:46;11.30;;;4.10;;
70929;SDS011;58588;48.102;19.682;2023-03-12T07:26:49;12.82;;;4.78;;
70929;SDS011;58588;48.102;19.682;2023-03-12T07:29:51;12.73;;;4.10;;
70929;SDS011;58588;48.102;19.682;2023-03-12T07:32:54;15.65;;;5.47;;
70929;SDS011;58588;48.102;19.682;2023-03-12T07:35:56;10.77;;;4.33;;
70929;SDS011;58588;48.102;19.682;2023-03-12T07:38:59;12.27;;;4.72;;
70929;SDS011;58588;48.102;19.682;2023-03-12T07:42:01;11.15;;;3.60;;
70929;SDS011;58588;48.102;19.682;2023-03-12T07:45:04;10.07;;;3.35;;
70929;SDS011;58588;48.102;19.682;2023-03-12T07:48:08;8.88;;;2.92;;
70929;SDS011;58588;48.102;19.682;2023-03-12T07:51:10;10.00;;;3.37;;
70929;SDS011;58588;48.102;19.682;2023-03-12T07:54:13;9.18;;;3.55;;
70929;SDS011;58588;48.102;19.682;2023-03-12T07:57:15;12.55;;;4.00;;
70929;SDS011;58588;48.102;19.682;2023-03-12T08:00:17;9.85;;;3.65;;
70929;SDS011;58588;48.102;19.682;2023-03-12T08:03:21;8.10;;;3.10;;
70929;SDS011;58588;48.102;19.682;2023-03-12T08:06:25;9.60;;;3.03;;
70929;SDS011;58588;48.102;19.682;2023-03-12T08:09:27;8.68;;;3.17;;
70929;SDS011;58588;48.102;19.682;2023-03-12T08:12:29;9.75;;;3.50;;
70929;SDS011;58588;48.102;19.682;2023-03-12T08:15:32;9.65;;;3.35;;
70929;SDS011;58588;48.102;19.682;2023-03-12T08:18:35;8.43;;;3.05;;
70929;SDS011;58588;48.102;19.682;2023-03-12T08:21:37;7.47;;;2.40;;
70929;SDS011;58588;48.102;19.682;2023-03-12T08:24:40;6.05;;;2.05;;
70929;SDS011;58588;48.102;19.682;2023-03-12T08:27:42;8.25;;;2.60;;
70929;SDS011;58588;48.102;19.682;2023-03-12T08:30:45;7.63;;;2.53;;
70929;SDS011;58588;48.102;19.682;2023-03-12T08:33:49;6.72;;;2.45;;
70929;SDS011;58588;48.102;19.682;2023-03-12T08:36:51;9.20;;;3.17;;
70929;SDS011;58588;48.102;19.682;2023-03-12T08:39:53;7.43;;;2.70;;
70929;SDS011;58588;48.102;19.682;2023-03-12T08:42:56;9.30;;;3.10;;
70929;SDS011;58588;48.102;19.682;2023-03-12T08:45:59;7.55;;;2.42;;
70929;SDS011;58588;48.102;19.682;2023-03-12T08:49:04;8.23;;;2.67;;
70929;SDS011;58588;48.102;19.682;2023-03-12T08:52:06;9.07;;;3.10;;
70929;SDS011;58588;48.102;19.682;2023-03-12T08:55:08;8.23;;;2.90;;
70929;SDS011;58588;48.102;19.682;2023-03-12T08:58:11;8.98;;;3.60;;
70929;SDS011;58588;48.102;19.682;2023-03-12T09:01:13;8.35;;;2.78;;
70929;SDS011;58588;48.102;19.682;2023-03-12T09:04:17;8.80;;;3.10;;
70929;SDS011;58588;48.102;19.682;2023-03-12T09:07:19;7.10;;;2.63;;
70929;SDS011;58588;48.102;19.682;2023-03-12T09:10:22;7.93;;;2.73;;
70929;SDS011;58588;48.102;19.682;2023-03-12T09:13:24;7.70;;;2.85;;
70929;SDS011;58588;48.102;19.682;2023-03-12T09:16:26;6.95;;;2.45;;
70929;SDS011;58588;48.102;19.682;2023-03-12T09:19:31;8.82;;;3.10;;
70929;SDS011;58588;48.102;19.682;2023-03-12T09:22:33;7.97;;;2.97;;
70929;SDS011;58588;48.102;19.682;2023-03-12T09:25:36;8.30;;;2.50;;
70929;SDS011;58588;48.102;19.682;2023-03-12T09:28:38;6.72;;;2.15;;
70929;SDS011;58588;48.102;19.682;2023-03-12T09:31:41;6.72;;;2.20;;
70929;SDS011;58588;48.102;19.682;2023-03-12T09:34:45;7.47;;;2.72;;
70929;SDS011;58588;48.102;19.682;2023-03-12T09:37:47;8.03;;;2.33;;
70929;SDS011;58588;48.102;19.682;2023-03-12T09:40:50;7.80;;;2.80;;
70929;SDS011;58588;48.102;19.682;2023-03-12T09:43:54;7.05;;;2.40;;
70929;SDS011;58588;48.102;19.682;2023-03-12T09:46:59;8.65;;;3.30;;
70929;SDS011;58588;48.102;19.682;2023-03-12T09:50:07;7.55;;;2.47;;
70929;SDS011;58588;48.102;19.682;2023-03-12T09:53:24;7.63;;;2.70;;
70929;SDS011;58588;48.102;19.682;2023-03-12T09:56:31;8.80;;;3.17;;
70929;SDS011;58588;48.102;19.682;2023-03-12T09:59:34;9.15;;;2.90;;
70929;SDS011;58588;48.102;19.682;2023-03-12T10:02:43;8.75;;;2.78;;
70929;SDS011;58588;48.102;19.682;2023-03-12T10:06:01;7.38;;;2.30;;
70929;SDS011;58588;48.102;19.682;2023-03-12T10:09:16;9.57;;;3.00;;
70929;SDS011;58588;48.102;19.682;2023-03-12T10:12:29;7.53;;;2.60;;
70929;SDS011;58588;48.102;19.682;2023-03-12T10:15:41;8.15;;;2.70;;
70929;SDS011;58588;48.102;19.682;2023-03-12T10:18:55;8.55;;;3.00;;
70929;SDS011;58588;48.102;19.682;2023-03-12T10:22:09;7.55;;;2.70;;
70929;SDS011;58588;48.102;19.682;2023-03-12T10:25:23;7.80;;;3.00;;
70929;SDS011;58588;48.102;19.682;2023-03-12T10:28:30;8.83;;;2.80;;
70929;SDS011;58588;48.102;19.682;2023-03-12T10:31:40;7.38;;;2.70;;
70929;SDS011;58588;48.102;19.682;2023-03-12T10:34:50;7.30;;;2.70;;
70929;SDS011;58588;48.102;19.682;2023-03-12T10:37:56;7.95;;;3.05;;
70929;SDS011;58588;48.102;19.682;2023-03-12T10:40:59;10.37;;;3.13;;
70929;SDS011;58588;48.102;19.682;2023-03-12T10:44:13;9.30;;;3.20;;
70929;SDS011;58588;48.102;19.682;2023-03-12T10:47:24;8.35;;;3.03;;
70929;SDS011;58588;48.102;19.682;2023-03-12T10:50:33;8.85;;;2.72;;
70929;SDS011;58588;48.102;19.682;2023-03-12T10:53:39;7.88;;;2.90;;
70929;SDS011;58588;48.102;19.682;2023-03-12T10:56:47;7.13;;;2.50;;
70929;SDS011;58588;48.102;19.682;2023-03-12T10:59:50;8.20;;;2.47;;
70929;SDS011;58588;48.102;19.682;2023-03-12T11:02:56;7.90;;;2.47;;
70929;SDS011;58588;48.102;19.682;2023-03-12T11:06:02;7.78;;;2.58;;
70929;SDS011;58588;48.102;19.682;2023-03-12T11:09:14;7.63;;;2.40;;
70929;SDS011;58588;48.102;19.682;2023-03-12T11:12:22;6.43;;;2.33;;
70929;SDS011;58588;48.102;19.682;2023-03-12T11:15:27;6.70;;;1.80;;
70929;SDS011;58588;48.102;19.682;2023-03-12T11:18:34;6.93;;;1.85;;
70929;SDS011;58588;48.102;19.682;2023-03-12T11:21:38;6.15;;;2.05;;
70929;SDS011;58588;48.102;19.682;2023-03-12T11:24:54;7.88;;;2.20;;
70929;SDS011;58588;48.102;19.682;2023-03-12T11:27:59;7.73;;;2.30;;
70929;SDS011;58588;48.102;19.682;2023-03-12T11:31:02;5.63;;;1.53;;
70929;SDS011;58588;48.102;19.682;2023-03-12T11:34:13;6.82;;;1.90;;
70929;SDS011;58588;48.102;19.682;2023-03-12T11:37:24;6.47;;;1.75;;
70929;SDS011;58588;48.102;19.682;2023-03-12T11:40:41;6.05;;;2.03;;
70929;SDS011;58588;48.102;19.682;2023-03-12T11:43:59;7.23;;;2.07;;
70929;SDS011;58588;48.102;19.682;2023-03-12T11:47:18;6.43;;;1.60;;
70929;SDS011;58588;48.102;19.682;2023-03-12T11:50:35;6.65;;;2.05;;
70929;SDS011;58588;48.102;19.682;2023-03-12T11:57:15;6.43;;;2.03;;
70929;SDS011;58588;48.102;19.682;2023-03-12T12:00:27;7.30;;;2.50;;
70929;SDS011;58588;48.102;19.682;2023-03-12T12:03:53;6.50;;;2.00;;
70929;SDS011;58588;48.102;19.682;2023-03-12T12:07:28;6.38;;;2.13;;
70929;SDS011;58588;48.102;19.682;2023-03-12T12:10:45;6.30;;;1.95;;
70929;SDS011;58588;48.102;19.682;2023-03-12T12:14:00;6.53;;;2.03;;
70929;SDS011;58588;48.102;19.682;2023-03-12T12:17:14;7.20;;;1.77;;
70929;SDS011;58588;48.102;19.682;2023-03-12T12:20:30;5.10;;;1.50;;
70929;SDS011;58588;48.102;19.682;2023-03-12T12:23:43;5.55;;;1.40;;
70929;SDS011;58588;48.102;19.682;2023-03-12T12:26:53;5.35;;;1.40;;
70929;SDS011;58588;48.102;19.682;2023-03-12T12:30:08;7.28;;;1.67;;
70929;SDS011;58588;48.102;19.682;2023-03-12T12:33:22;7.53;;;2.10;;
70929;SDS011;58588;48.102;19.682;2023-03-12T12:36:37;6.17;;;1.70;;
70929;SDS011;58588;48.102;19.682;2023-03-12T12:39:40;6.25;;;1.77;;
70929;SDS011;58588;48.102;19.682;2023-03-12T12:42:53;6.00;;;2.05;;
70929;SDS011;58588;48.102;19.682;2023-03-12T12:46:01;7.90;;;1.63;;
70929;SDS011;58588;48.102;19.682;2023-03-12T12:49:07;5.73;;;1.40;;
70929;SDS011;58588;48.102;19.682;2023-03-12T12:52:14;4.93;;;1.30;;
70929;SDS011;58588;48.102;19.682;2023-03-12T12:55:20;5.90;;;1.58;;
70929;SDS011;58588;48.102;19.682;2023-03-12T12:58:39;4.72;;;1.20;;
70929;SDS011;58588;48.102;19.682;2023-03-12T13:01:53;5.85;;;1.70;;
70929;SDS011;58588;48.102;19.682;2023-03-12T13:04:57;5.57;;;1.27;;
70929;SDS011;58588;48.102;19.682;2023-03-12T13:07:59;5.70;;;1.63;;
70929;SDS011;58588;48.102;19.682;2023-03-12T13:11:04;6.47;;;1.40;;
70929;SDS011;58588;48.102;19.682;2023-03-12T13:14:35;5.15;;;1.38;;
70929;SDS011;58588;48.102;19.682;2023-03-12T13:21:16;6.20;;;1.67;;
70929;SDS011;58588;48.102;19.682;2023-03-12T13:24:25;5.13;;;1.37;;
70929;SDS011;58588;48.102;19.682;2023-03-12T13:34:41;6.10;;;1.60;;
70929;SDS011;58588;48.102;19.682;2023-03-12T13:37:58;5.33;;;1.50;;
70929;SDS011;58588;48.102;19.682;2023-03-12T13:41:04;5.20;;;1.30;;
70929;SDS011;58588;48.102;19.682;2023-03-12T13:44:28;5.43;;;1.70;;
70929;SDS011;58588;48.102;19.682;2023-03-12T13:47:36;5.20;;;1.48;;
70929;SDS011;58588;48.102;19.682;2023-03-12T13:50:47;6.20;;;1.70;;
70929;SDS011;58588;48.102;19.682;2023-03-12T13:53:54;5.57;;;1.53;;
70929;SDS011;58588;48.102;19.682;2023-03-12T13:57:01;5.43;;;1.53;;
70929;SDS011;58588;48.102;19.682;2023-03-12T14:00:09;5.38;;;1.60;;
70929;SDS011;58588;48.102;19.682;2023-03-12T14:03:17;6.68;;;1.73;;
70929;SDS011;58588;48.102;19.682;2023-03-12T14:06:26;6.13;;;1.88;;
70929;SDS011;58588;48.102;19.682;2023-03-12T14:09:33;5.60;;;1.90;;
70929;SDS011;58588;48.102;19.682;2023-03-12T14:12:45;6.00;;;1.70;;
70929;SDS011;58588;48.102;19.682;2023-03-12T14:15:58;6.22;;;1.85;;
70929;SDS011;58588;48.102;19.682;2023-03-12T14:19:08;5.90;;;1.88;;
70929;SDS011;58588;48.102;19.682;2023-03-12T14:22:13;5.93;;;1.67;;
70929;SDS011;58588;48.102;19.682;2023-03-12T14:25:25;6.60;;;1.77;;
70929;SDS011;58588;48.102;19.682;2023-03-12T14:28:36;5.83;;;1.70;;
70929;SDS011;58588;48.102;19.682;2023-03-12T14:31:41;7.25;;;2.00;;
70929;SDS011;58588;48.102;19.682;2023-03-12T14:34:44;8.02;;;2.00;;
70929;SDS011;58588;48.102;19.682;2023-03-12T14:37:51;5.35;;;1.52;;
70929;SDS011;58588;48.102;19.682;2023-03-12T14:41:02;5.97;;;1.87;;
70929;SDS011;58588;48.102;19.682;2023-03-12T14:44:19;5.33;;;1.90;;
70929;SDS011;58588;48.102;19.682;2023-03-12T14:47:23;5.65;;;1.90;;
70929;SDS011;58588;48.102;19.682;2023-03-12T14:50:26;5.80;;;1.77;;
70929;SDS011;58588;48.102;19.682;2023-03-12T14:53:30;6.63;;;1.80;;
70929;SDS011;58588;48.102;19.682;2023-03-12T14:56:35;5.10;;;1.60;;
70929;SDS011;58588;48.102;19.682;2023-03-12T14:59:38;5.73;;;1.70;;
70929;SDS011;58588;48.102;19.682;2023-03-12T15:02:40;5.97;;;1.60;;
70929;SDS011;58588;48.102;19.682;2023-03-12T15:05:44;8.50;;;2.10;;
70929;SDS011;58588;48.102;19.682;2023-03-12T15:08:47;5.97;;;1.92;;
70929;SDS011;58588;48.102;19.682;2023-03-12T15:11:51;5.37;;;1.80;;
70929;SDS011;58588;48.102;19.682;2023-03-12T15:14:59;5.73;;;1.80;;
70929;SDS011;58588;48.102;19.682;2023-03-12T15:18:06;5.47;;;1.70;;
70929;SDS011;58588;48.102;19.682;2023-03-12T15:21:12;5.70;;;1.80;;
70929;SDS011;58588;48.102;19.682;2023-03-12T15:24:14;5.50;;;1.70;;
70929;SDS011;58588;48.102;19.682;2023-03-12T15:27:19;5.70;;;1.73;;
70929;SDS011;58588;48.102;19.682;2023-03-12T15:30:30;5.93;;;1.60;;
70929;SDS011;58588;48.102;19.682;2023-03-12T15:33:34;6.43;;;1.90;;
70929;SDS011;58588;48.102;19.682;2023-03-12T15:36:36;5.90;;;1.92;;
70929;SDS011;58588;48.102;19.682;2023-03-12T15:39:47;5.35;;;1.52;;
70929;SDS011;58588;48.102;19.682;2023-03-12T15:42:53;6.03;;;1.50;;
70929;SDS011;58588;48.102;19.682;2023-03-12T15:45:58;7.37;;;1.90;;
70929;SDS011;58588;48.102;19.682;2023-03-12T15:49:02;5.25;;;1.25;;
70929;SDS011;58588;48.102;19.682;2023-03-12T15:52:05;6.28;;;1.60;;
70929;SDS011;58588;48.102;19.682;2023-03-12T15:55:27;5.90;;;1.70;;
70929;SDS011;58588;48.102;19.682;2023-03-12T15:58:32;5.50;;;1.80;;
70929;SDS011;58588;48.102;19.682;2023-03-12T16:01:45;9.27;;;2.17;;
70929;SDS011;58588;48.102;19.682;2023-03-12T16:04:48;7.15;;;1.50;;
70929;SDS011;58588;48.102;19.682;2023-03-12T16:07:50;5.65;;;1.40;;
70929;SDS011;58588;48.102;19.682;2023-03-12T16:10:52;6.57;;;1.60;;
70929;SDS011;58588;48.102;19.682;2023-03-12T16:14:02;4.60;;;1.10;;
70929;SDS011;58588;48.102;19.682;2023-03-12T16:17:09;6.03;;;1.67;;
70929;SDS011;58588;48.102;19.682;2023-03-12T16:20:16;7.88;;;1.80;;
70929;SDS011;58588;48.102;19.682;2023-03-12T16:23:19;5.07;;;1.40;;
70929;SDS011;58588;48.102;19.682;2023-03-12T16:26:21;6.38;;;1.20;;
70929;SDS011;58588;48.102;19.682;2023-03-12T16:29:26;5.67;;;1.47;;
70929;SDS011;58588;48.102;19.682;2023-03-12T16:32:32;5.47;;;1.30;;
70929;SDS011;58588;48.102;19.682;2023-03-12T16:35:34;5.88;;;1.30;;
70929;SDS011;58588;48.102;19.682;2023-03-12T16:38:36;6.72;;;1.75;;
70929;SDS011;58588;48.102;19.682;2023-03-12T16:41:38;6.53;;;1.50;;
70929;SDS011;58588;48.102;19.682;2023-03-12T16:44:42;5.47;;;1.33;;
70929;SDS011;58588;48.102;19.682;2023-03-12T16:47:45;5.87;;;1.60;;
70929;SDS011;58588;48.102;19.682;2023-03-12T16:50:54;6.45;;;1.30;;
70929;SDS011;58588;48.102;19.682;2023-03-12T16:53:57;5.65;;;1.30;;
70929;SDS011;58588;48.102;19.682;2023-03-12T16:56:59;5.70;;;1.33;;
70929;SDS011;58588;48.102;19.682;2023-03-12T17:00:04;6.13;;;1.40;;
70929;SDS011;58588;48.102;19.682;2023-03-12T17:03:10;6.47;;;1.50;;
70929;SDS011;58588;48.102;19.682;2023-03-12T17:06:19;5.88;;;1.60;;
70929;SDS011;58588;48.102;19.682;2023-03-12T17:09:22;6.05;;;1.40;;
70929;SDS011;58588;48.102;19.682;2023-03-12T17:12:26;5.47;;;1.33;;
70929;SDS011;58588;48.102;19.682;2023-03-12T17:15:31;7.03;;;1.90;;
70929;SDS011;58588;48.102;19.682;2023-03-12T17:18:34;6.27;;;1.73;;
70929;SDS011;58588;48.102;19.682;2023-03-12T17:21:36;7.88;;;2.00;;
70929;SDS011;58588;48.102;19.682;2023-03-12T17:24:38;11.25;;;3.42;;
70929;SDS011;58588;48.102;19.682;2023-03-12T17:27:40;8.60;;;2.58;;
70929;SDS011;58588;48.102;19.682;2023-03-12T17:30:44;9.90;;;3.63;;
70929;SDS011;58588;48.102;19.682;2023-03-12T17:33:46;13.33;;;4.93;;
70929;SDS011;58588;48.102;19.682;2023-03-12T17:36:48;12.10;;;4.20;;
70929;SDS011;58588;48.102;19.682;2023-03-12T17:39:50;13.40;;;5.97;;
70929;SDS011;58588;48.102;19.682;2023-03-12T17:42:53;14.63;;;6.00;;
70929;SDS011;58588;48.102;19.682;2023-03-12T17:45:56;9.17;;;3.50;;
70929;SDS011;58588;48.102;19.682;2023-03-12T17:48:58;18.43;;;6.70;;
70929;SDS011;58588;48.102;19.682;2023-03-12T17:52:01;15.80;;;6.75;;
70929;SDS011;58588;48.102;19.682;2023-03-12T17:55:04;10.30;;;4.47;;
70929;SDS011;58588;48.102;19.682;2023-03-12T17:58:07;12.90;;;5.35;;
70929;SDS011;58588;48.102;19.682;2023-03-12T18:01:11;12.43;;;5.13;;
70929;SDS011;58588;48.102;19.682;2023-03-12T18:04:13;19.87;;;6.60;;
70929;SDS011;58588;48.102;19.682;2023-03-12T18:11:12;9.00;;;2.88;;
70929;SDS011;58588;48.102;19.682;2023-03-12T18:14:14;12.00;;;3.60;;
70929;SDS011;58588;48.102;19.682;2023-03-12T18:17:18;22.93;;;8.03;;
70929;SDS011;58588;48.102;19.682;2023-03-12T18:20:20;16.37;;;5.57;;
70929;SDS011;58588;48.102;19.682;2023-03-12T18:23:22;17.13;;;5.65;;
70929;SDS011;58588;48.102;19.682;2023-03-12T18:26:25;21.27;;;6.97;;
70929;SDS011;58588;48.102;19.682;2023-03-12T18:29:27;20.73;;;6.32;;
70929;SDS011;58588;48.102;19.682;2023-03-12T18:32:30;21.77;;;7.20;;